sensor_id;sensor_type;location;lat;lon;timestamp;temperature;humidity
24686;DHT22;12804;51.176;4.452;2022-12-17T00:00:52;-1.60;99.90
24686;DHT22;12804;51.176;4.452;2022-12-17T00:03:37;-1.60;99.90
24686;DHT22;12804;51.176;4.452;2022-12-17T00:06:21;-1.60;99.90
24686;DHT22;12804;51.176;4.452;2022-12-17T00:09:06;-1.70;99.90
24686;DHT22;12804;51.176;4.452;2022-12-17T00:11:50;-1.60;99.90
24686;DHT22;12804;51.176;4.452;2022-12-17T00:14:34;-1.70;99.90
24686;DHT22;12804;51.176;4.452;2022-12-17T00:17:19;-1.80;99.90
24686;DHT22;12804;51.176;4.452;2022-12-17T00:20:04;-1.70;99.90
24686;DHT22;12804;51.176;4.452;2022-12-17T00:22:57;-1.80;99.90
24686;DHT22;12804;51.176;4.452;2022-12-17T00:25:42;-1.80;99.90
24686;DHT22;12804;51.176;4.452;2022-12-17T00:28:26;-1.80;99.90
24686;DHT22;12804;51.176;4.452;2022-12-17T00:31:11;-1.80;99.90
24686;DHT22;12804;51.176;4.452;2022-12-17T00:33:57;-1.80;99.90
24686;DHT22;12804;51.176;4.452;2022-12-17T00:36:41;-1.70;99.90
24686;DHT22;12804;51.176;4.452;2022-12-17T00:39:26;-1.80;99.90
24686;DHT22;12804;51.176;4.452;2022-12-17T00:42:10;-1.70;99.90
24686;DHT22;12804;51.176;4.452;2022-12-17T00:44:54;-1.70;99.90
24686;DHT22;12804;51.176;4.452;2022-12-17T00:47:38;-1.70;99.90
24686;DHT22;12804;51.176;4.452;2022-12-17T00:50:22;-1.70;99.90
24686;DHT22;12804;51.176;4.452;2022-12-17T00:53:07;-1.80;99.90
24686;DHT22;12804;51.176;4.452;2022-12-17T00:55:52;-1.90;99.90
24686;DHT22;12804;51.176;4.452;2022-12-17T00:58:36;-1.90;99.90
24686;DHT22;12804;51.176;4.452;2022-12-17T01:01:21;-1.70;99.90
24686;DHT22;12804;51.176;4.452;2022-12-17T01:04:06;-1.70;99.90
24686;DHT22;12804;51.176;4.452;2022-12-17T01:06:51;-1.70;99.90
24686;DHT22;12804;51.176;4.452;2022-12-17T01:09:35;-1.80;99.90
24686;DHT22;12804;51.176;4.452;2022-12-17T01:12:20;-1.90;99.90
24686;DHT22;12804;51.176;4.452;2022-12-17T01:15:08;-1.80;99.90
24686;DHT22;12804;51.176;4.452;2022-12-17T01:17:53;-1.60;99.90
24686;DHT22;12804;51.176;4.452;2022-12-17T01:20:37;-1.50;99.90
24686;DHT22;12804;51.176;4.452;2022-12-17T01:23:22;-1.70;99.90
24686;DHT22;12804;51.176;4.452;2022-12-17T01:26:06;-1.80;99.90
24686;DHT22;12804;51.176;4.452;2022-12-17T01:28:51;-1.80;99.90
24686;DHT22;12804;51.176;4.452;2022-12-17T01:31:38;-2.00;99.90
24686;DHT22;12804;51.176;4.452;2022-12-17T01:34:23;-2.10;99.90
24686;DHT22;12804;51.176;4.452;2022-12-17T01:37:07;-2.10;99.90
24686;DHT22;12804;51.176;4.452;2022-12-17T01:39:51;-2.20;99.90
24686;DHT22;12804;51.176;4.452;2022-12-17T01:42:41;-2.30;99.90
24686;DHT22;12804;51.176;4.452;2022-12-17T01:45:29;-2.20;99.90
24686;DHT22;12804;51.176;4.452;2022-12-17T01:48:19;-2.20;99.90
24686;DHT22;12804;51.176;4.452;2022-12-17T01:51:07;-2.20;99.90
24686;DHT22;12804;51.176;4.452;2022-12-17T01:53:53;-2.30;99.90
24686;DHT22;12804;51.176;4.452;2022-12-17T01:56:40;-2.20;99.90
24686;DHT22;12804;51.176;4.452;2022-12-17T01:59:47;-2.40;99.90
24686;DHT22;12804;51.176;4.452;2022-12-17T02:02:39;-2.50;99.90
24686;DHT22;12804;51.176;4.452;2022-12-17T02:08:38;-2.40;99.90
24686;DHT22;12804;51.176;4.452;2022-12-17T02:14:22;-2.40;99.90
24686;DHT22;12804;51.176;4.452;2022-12-17T02:17:14;-2.50;99.90
24686;DHT22;12804;51.176;4.452;2022-12-17T02:25:53;-2.50;99.90
24686;DHT22;12804;51.176;4.452;2022-12-17T02:28:42;-2.60;99.90
24686;DHT22;12804;51.176;4.452;2022-12-17T02:31:29;-2.60;99.90
24686;DHT22;12804;51.176;4.452;2022-12-17T02:34:14;-2.50;99.90
24686;DHT22;12804;51.176;4.452;2022-12-17T02:36:58;-2.20;99.90
24686;DHT22;12804;51.176;4.452;2022-12-17T02:39:43;-2.30;99.90
24686;DHT22;12804;51.176;4.452;2022-12-17T02:42:30;-2.40;99.90
24686;DHT22;12804;51.176;4.452;2022-12-17T02:45:16;-2.50;99.90
24686;DHT22;12804;51.176;4.452;2022-12-17T02:48:01;-2.60;99.90
24686;DHT22;12804;51.176;4.452;2022-12-17T02:50:47;-2.60;99.90
24686;DHT22;12804;51.176;4.452;2022-12-17T02:53:32;-2.60;99.90
24686;DHT22;12804;51.176;4.452;2022-12-17T02:56:17;-2.70;99.90
24686;DHT22;12804;51.176;4.452;2022-12-17T02:59:02;-2.60;99.90
24686;DHT22;12804;51.176;4.452;2022-12-17T03:01:47;-2.60;99.90
24686;DHT22;12804;51.176;4.452;2022-12-17T03:04:32;-2.50;99.90
24686;DHT22;12804;51.176;4.452;2022-12-17T03:07:16;-2.50;99.90
24686;DHT22;12804;51.176;4.452;2022-12-17T03:10:01;-2.40;99.90
24686;DHT22;12804;51.176;4.452;2022-12-17T03:12:46;-2.50;99.90
24686;DHT22;12804;51.176;4.452;2022-12-17T03:15:30;-2.60;99.90
24686;DHT22;12804;51.176;4.452;2022-12-17T03:18:14;-2.70;99.90
24686;DHT22;12804;51.176;4.452;2022-12-17T03:20:59;-2.60;99.90
24686;DHT22;12804;51.176;4.452;2022-12-17T03:23:46;-2.60;99.90
24686;DHT22;12804;51.176;4.452;2022-12-17T03:26:31;-2.60;99.90
24686;DHT22;12804;51.176;4.452;2022-12-17T03:29:15;-2.60;99.90
24686;DHT22;12804;51.176;4.452;2022-12-17T03:31:59;-2.40;99.90
24686;DHT22;12804;51.176;4.452;2022-12-17T03:34:44;-2.30;99.90
24686;DHT22;12804;51.176;4.452;2022-12-17T03:37:28;-2.40;99.90
24686;DHT22;12804;51.176;4.452;2022-12-17T03:40:12;-2.50;99.90
24686;DHT22;12804;51.176;4.452;2022-12-17T03:42:57;-2.50;99.90
24686;DHT22;12804;51.176;4.452;2022-12-17T03:45:54;-2.50;99.90
24686;DHT22;12804;51.176;4.452;2022-12-17T03:48:38;-2.60;99.90
24686;DHT22;12804;51.176;4.452;2022-12-17T03:51:23;-2.70;99.90
24686;DHT22;12804;51.176;4.452;2022-12-17T03:54:07;-2.70;99.90
24686;DHT22;12804;51.176;4.452;2022-12-17T03:56:51;-2.70;99.90
24686;DHT22;12804;51.176;4.452;2022-12-17T03:59:35;-2.70;99.90
24686;DHT22;12804;51.176;4.452;2022-12-17T04:02:20;-2.80;99.90
24686;DHT22;12804;51.176;4.452;2022-12-17T04:05:04;-2.80;99.90
24686;DHT22;12804;51.176;4.452;2022-12-17T04:07:49;-2.80;99.90
24686;DHT22;12804;51.176;4.452;2022-12-17T04:10:33;-2.80;99.90
24686;DHT22;12804;51.176;4.452;2022-12-17T04:13:18;-2.80;99.90
24686;DHT22;12804;51.176;4.452;2022-12-17T04:16:02;-2.80;99.90
24686;DHT22;12804;51.176;4.452;2022-12-17T04:18:47;-2.90;99.90
24686;DHT22;12804;51.176;4.452;2022-12-17T04:21:31;-2.90;99.90
24686;DHT22;12804;51.176;4.452;2022-12-17T04:24:16;-2.90;99.90
24686;DHT22;12804;51.176;4.452;2022-12-17T04:27:00;-2.90;99.90
24686;DHT22;12804;51.176;4.452;2022-12-17T04:29:44;-3.00;99.90
24686;DHT22;12804;51.176;4.452;2022-12-17T04:32:29;-2.90;99.90
24686;DHT22;12804;51.176;4.452;2022-12-17T04:35:13;-3.00;99.90
24686;DHT22;12804;51.176;4.452;2022-12-17T04:37:57;-3.00;99.90
24686;DHT22;12804;51.176;4.452;2022-12-17T04:40:41;-3.00;99.90
24686;DHT22;12804;51.176;4.452;2022-12-17T04:43:25;-3.00;99.90
24686;DHT22;12804;51.176;4.452;2022-12-17T04:46:10;-3.10;99.90
24686;DHT22;12804;51.176;4.452;2022-12-17T04:48:55;-3.00;99.90
24686;DHT22;12804;51.176;4.452;2022-12-17T04:51:40;-3.00;99.90
24686;DHT22;12804;51.176;4.452;2022-12-17T04:54:24;-3.00;99.90
24686;DHT22;12804;51.176;4.452;2022-12-17T04:57:08;-3.00;99.90
24686;DHT22;12804;51.176;4.452;2022-12-17T04:59:53;-3.00;99.90
24686;DHT22;12804;51.176;4.452;2022-12-17T05:02:37;-3.00;99.90
24686;DHT22;12804;51.176;4.452;2022-12-17T05:05:21;-3.10;99.90
24686;DHT22;12804;51.176;4.452;2022-12-17T05:08:06;-3.10;99.90
24686;DHT22;12804;51.176;4.452;2022-12-17T05:10:50;-3.10;99.90
24686;DHT22;12804;51.176;4.452;2022-12-17T05:13:35;-3.20;99.90
24686;DHT22;12804;51.176;4.452;2022-12-17T05:16:19;-3.10;99.90
24686;DHT22;12804;51.176;4.452;2022-12-17T05:19:03;-3.10;99.90
24686;DHT22;12804;51.176;4.452;2022-12-17T05:21:48;-3.10;99.90
24686;DHT22;12804;51.176;4.452;2022-12-17T05:24:32;-3.20;99.90
24686;DHT22;12804;51.176;4.452;2022-12-17T05:27:16;-3.20;99.90
24686;DHT22;12804;51.176;4.452;2022-12-17T05:30:00;-3.10;99.90
24686;DHT22;12804;51.176;4.452;2022-12-17T05:32:45;-3.10;99.90
24686;DHT22;12804;51.176;4.452;2022-12-17T05:35:29;-3.20;99.90
24686;DHT22;12804;51.176;4.452;2022-12-17T05:38:14;-3.30;99.90
24686;DHT22;12804;51.176;4.452;2022-12-17T05:40:58;-3.20;99.90
24686;DHT22;12804;51.176;4.452;2022-12-17T05:43:43;-3.20;99.90
24686;DHT22;12804;51.176;4.452;2022-12-17T05:46:28;-3.00;99.90
24686;DHT22;12804;51.176;4.452;2022-12-17T05:49:13;-2.90;99.90
24686;DHT22;12804;51.176;4.452;2022-12-17T05:51:57;-3.10;99.90
24686;DHT22;12804;51.176;4.452;2022-12-17T05:54:41;-3.10;99.90
24686;DHT22;12804;51.176;4.452;2022-12-17T05:57:26;-3.20;99.90
24686;DHT22;12804;51.176;4.452;2022-12-17T06:00:11;-3.20;99.90
24686;DHT22;12804;51.176;4.452;2022-12-17T06:03:00;-3.20;99.90
24686;DHT22;12804;51.176;4.452;2022-12-17T06:05:47;-3.20;99.90
24686;DHT22;12804;51.176;4.452;2022-12-17T06:08:36;-3.10;99.90
24686;DHT22;12804;51.176;4.452;2022-12-17T06:11:20;-3.10;99.90
24686;DHT22;12804;51.176;4.452;2022-12-17T06:14:04;-3.10;99.90
24686;DHT22;12804;51.176;4.452;2022-12-17T06:16:49;-3.10;99.90
24686;DHT22;12804;51.176;4.452;2022-12-17T06:19:33;-3.20;99.90
24686;DHT22;12804;51.176;4.452;2022-12-17T06:22:17;-3.30;99.90
24686;DHT22;12804;51.176;4.452;2022-12-17T06:25:02;-3.30;99.90
24686;DHT22;12804;51.176;4.452;2022-12-17T06:27:46;-3.30;99.90
24686;DHT22;12804;51.176;4.452;2022-12-17T06:30:31;-3.30;99.90
24686;DHT22;12804;51.176;4.452;2022-12-17T06:33:15;-3.30;99.90
24686;DHT22;12804;51.176;4.452;2022-12-17T06:36:00;-3.30;99.90
24686;DHT22;12804;51.176;4.452;2022-12-17T06:38:44;-3.50;99.90
24686;DHT22;12804;51.176;4.452;2022-12-17T06:41:28;-3.50;99.90
24686;DHT22;12804;51.176;4.452;2022-12-17T06:44:13;-3.40;99.90
24686;DHT22;12804;51.176;4.452;2022-12-17T06:46:57;-3.30;99.90
24686;DHT22;12804;51.176;4.452;2022-12-17T06:49:41;-3.30;99.90
24686;DHT22;12804;51.176;4.452;2022-12-17T06:52:26;-3.30;99.90
24686;DHT22;12804;51.176;4.452;2022-12-17T06:55:10;-3.40;99.90
24686;DHT22;12804;51.176;4.452;2022-12-17T06:57:58;-3.30;99.90
24686;DHT22;12804;51.176;4.452;2022-12-17T07:00:44;-3.40;99.90
24686;DHT22;12804;51.176;4.452;2022-12-17T07:03:28;-3.40;99.90
24686;DHT22;12804;51.176;4.452;2022-12-17T07:06:13;-3.50;99.90
24686;DHT22;12804;51.176;4.452;2022-12-17T07:08:57;-3.50;99.90
24686;DHT22;12804;51.176;4.452;2022-12-17T07:11:42;-3.40;99.90
24686;DHT22;12804;51.176;4.452;2022-12-17T07:14:26;-3.40;99.90
24686;DHT22;12804;51.176;4.452;2022-12-17T07:17:10;-3.40;99.90
24686;DHT22;12804;51.176;4.452;2022-12-17T07:19:54;-3.40;99.90
24686;DHT22;12804;51.176;4.452;2022-12-17T07:22:39;-3.40;99.90
24686;DHT22;12804;51.176;4.452;2022-12-17T07:25:23;-3.50;99.90
24686;DHT22;12804;51.176;4.452;2022-12-17T07:28:08;-3.40;99.90
24686;DHT22;12804;51.176;4.452;2022-12-17T07:30:54;-3.50;99.90
24686;DHT22;12804;51.176;4.452;2022-12-17T07:33:38;-3.40;99.90
24686;DHT22;12804;51.176;4.452;2022-12-17T07:36:22;-3.50;99.90
24686;DHT22;12804;51.176;4.452;2022-12-17T07:39:07;-3.40;99.90
24686;DHT22;12804;51.176;4.452;2022-12-17T07:41:52;-3.30;99.90
24686;DHT22;12804;51.176;4.452;2022-12-17T07:44:36;-3.40;99.90
24686;DHT22;12804;51.176;4.452;2022-12-17T07:47:20;-3.40;99.90
24686;DHT22;12804;51.176;4.452;2022-12-17T07:50:05;-3.40;99.90
24686;DHT22;12804;51.176;4.452;2022-12-17T07:53:00;-3.50;99.90
24686;DHT22;12804;51.176;4.452;2022-12-17T07:55:45;-3.50;99.90
24686;DHT22;12804;51.176;4.452;2022-12-17T07:58:29;-3.40;99.90
24686;DHT22;12804;51.176;4.452;2022-12-17T08:01:13;-3.40;99.90
24686;DHT22;12804;51.176;4.452;2022-12-17T08:03:58;-3.30;99.90
24686;DHT22;12804;51.176;4.452;2022-12-17T08:06:42;-3.60;99.90
24686;DHT22;12804;51.176;4.452;2022-12-17T08:09:26;-3.60;99.90
24686;DHT22;12804;51.176;4.452;2022-12-17T08:12:11;-3.60;99.90
24686;DHT22;12804;51.176;4.452;2022-12-17T08:14:55;-3.50;99.90
24686;DHT22;12804;51.176;4.452;2022-12-17T08:17:39;-3.50;99.90
24686;DHT22;12804;51.176;4.452;2022-12-17T08:20:24;-3.50;99.90
24686;DHT22;12804;51.176;4.452;2022-12-17T08:23:08;-3.40;99.90
24686;DHT22;12804;51.176;4.452;2022-12-17T08:25:53;-3.40;99.90
24686;DHT22;12804;51.176;4.452;2022-12-17T08:28:37;-3.40;99.90
24686;DHT22;12804;51.176;4.452;2022-12-17T08:31:23;-3.40;99.90
24686;DHT22;12804;51.176;4.452;2022-12-17T08:34:07;-3.30;99.90
24686;DHT22;12804;51.176;4.452;2022-12-17T08:36:52;-3.20;99.90
24686;DHT22;12804;51.176;4.452;2022-12-17T08:39:36;-3.10;99.90
24686;DHT22;12804;51.176;4.452;2022-12-17T08:42:21;-3.10;99.90
24686;DHT22;12804;51.176;4.452;2022-12-17T08:45:06;-3.10;99.90
24686;DHT22;12804;51.176;4.452;2022-12-17T08:47:50;-3.00;99.90
24686;DHT22;12804;51.176;4.452;2022-12-17T08:50:34;-3.00;99.90
24686;DHT22;12804;51.176;4.452;2022-12-17T08:53:19;-3.00;99.90
24686;DHT22;12804;51.176;4.452;2022-12-17T08:56:04;-3.00;99.90
24686;DHT22;12804;51.176;4.452;2022-12-17T08:58:48;-2.90;99.90
24686;DHT22;12804;51.176;4.452;2022-12-17T09:01:32;-2.80;99.90
24686;DHT22;12804;51.176;4.452;2022-12-17T09:04:17;-2.80;99.90
24686;DHT22;12804;51.176;4.452;2022-12-17T09:07:01;-2.70;99.90
24686;DHT22;12804;51.176;4.452;2022-12-17T09:09:46;-2.70;99.90
24686;DHT22;12804;51.176;4.452;2022-12-17T09:12:30;-2.60;99.90
24686;DHT22;12804;51.176;4.452;2022-12-17T09:15:14;-2.60;99.90
24686;DHT22;12804;51.176;4.452;2022-12-17T09:17:59;-2.40;99.90
24686;DHT22;12804;51.176;4.452;2022-12-17T09:20:51;-2.40;99.90
24686;DHT22;12804;51.176;4.452;2022-12-17T09:23:35;-2.50;99.90
24686;DHT22;12804;51.176;4.452;2022-12-17T09:26:20;-2.50;99.90
24686;DHT22;12804;51.176;4.452;2022-12-17T09:29:04;-2.50;99.90
24686;DHT22;12804;51.176;4.452;2022-12-17T09:31:48;-2.40;99.90
24686;DHT22;12804;51.176;4.452;2022-12-17T09:34:33;-2.50;99.90
24686;DHT22;12804;51.176;4.452;2022-12-17T09:37:22;-2.60;99.90
24686;DHT22;12804;51.176;4.452;2022-12-17T09:40:11;-2.50;99.90
24686;DHT22;12804;51.176;4.452;2022-12-17T09:43:15;-2.50;99.90
24686;DHT22;12804;51.176;4.452;2022-12-17T09:46:20;-2.40;99.90
24686;DHT22;12804;51.176;4.452;2022-12-17T09:49:16;-2.20;99.90
24686;DHT22;12804;51.176;4.452;2022-12-17T09:52:10;-1.90;99.90
24686;DHT22;12804;51.176;4.452;2022-12-17T09:54:57;-1.30;99.90
24686;DHT22;12804;51.176;4.452;2022-12-17T09:57:42;-0.90;99.90
24686;DHT22;12804;51.176;4.452;2022-12-17T10:00:27;-0.30;99.90
24686;DHT22;12804;51.176;4.452;2022-12-17T10:03:20;0.10;99.90
24686;DHT22;12804;51.176;4.452;2022-12-17T10:06:09;0.50;99.90
24686;DHT22;12804;51.176;4.452;2022-12-17T10:08:59;0.30;99.90
24686;DHT22;12804;51.176;4.452;2022-12-17T10:11:44;0.10;99.90
24686;DHT22;12804;51.176;4.452;2022-12-17T10:14:28;-0.50;99.90
24686;DHT22;12804;51.176;4.452;2022-12-17T10:17:19;-0.70;99.90
24686;DHT22;12804;51.176;4.452;2022-12-17T10:23:00;0.50;99.90
24686;DHT22;12804;51.176;4.452;2022-12-17T10:25:51;1.20;99.90
24686;DHT22;12804;51.176;4.452;2022-12-17T10:28:35;1.80;99.90
24686;DHT22;12804;51.176;4.452;2022-12-17T10:31:21;2.20;99.90
24686;DHT22;12804;51.176;4.452;2022-12-17T10:34:15;1.90;99.90
24686;DHT22;12804;51.176;4.452;2022-12-17T10:37:00;1.30;99.90
24686;DHT22;12804;51.176;4.452;2022-12-17T10:39:54;1.60;99.90
24686;DHT22;12804;51.176;4.452;2022-12-17T10:42:39;1.50;99.90
24686;DHT22;12804;51.176;4.452;2022-12-17T10:45:28;1.80;99.90
24686;DHT22;12804;51.176;4.452;2022-12-17T10:48:29;2.20;99.90
24686;DHT22;12804;51.176;4.452;2022-12-17T10:51:34;2.90;99.90
24686;DHT22;12804;51.176;4.452;2022-12-17T10:54:23;3.60;99.90
24686;DHT22;12804;51.176;4.452;2022-12-17T10:57:22;3.20;99.90
24686;DHT22;12804;51.176;4.452;2022-12-17T11:00:28;3.60;99.90
24686;DHT22;12804;51.176;4.452;2022-12-17T11:03:50;4.20;99.90
24686;DHT22;12804;51.176;4.452;2022-12-17T11:06:38;4.50;99.90
24686;DHT22;12804;51.176;4.452;2022-12-17T11:09:49;4.50;99.90
24686;DHT22;12804;51.176;4.452;2022-12-17T11:12:38;4.90;99.90
24686;DHT22;12804;51.176;4.452;2022-12-17T11:15:37;4.40;99.90
24686;DHT22;12804;51.176;4.452;2022-12-17T11:21:47;3.40;99.90
24686;DHT22;12804;51.176;4.452;2022-12-17T11:25:02;2.80;99.90
24686;DHT22;12804;51.176;4.452;2022-12-17T11:27:52;2.20;99.90
24686;DHT22;12804;51.176;4.452;2022-12-17T11:30:45;1.80;99.90
24686;DHT22;12804;51.176;4.452;2022-12-17T11:33:54;1.40;99.90
24686;DHT22;12804;51.176;4.452;2022-12-17T11:37:06;1.00;99.90
24686;DHT22;12804;51.176;4.452;2022-12-17T11:40:02;1.10;99.90
24686;DHT22;12804;51.176;4.452;2022-12-17T11:43:00;1.10;99.90
24686;DHT22;12804;51.176;4.452;2022-12-17T11:49:03;1.20;99.90
24686;DHT22;12804;51.176;4.452;2022-12-17T11:52:21;1.00;99.90
24686;DHT22;12804;51.176;4.452;2022-12-17T11:55:35;1.10;99.90
24686;DHT22;12804;51.176;4.452;2022-12-17T12:01:20;0.70;99.90
24686;DHT22;12804;51.176;4.452;2022-12-17T12:07:22;0.30;99.90
24686;DHT22;12804;51.176;4.452;2022-12-17T12:11:14;0.10;99.90
24686;DHT22;12804;51.176;4.452;2022-12-17T12:17:10;-0.10;99.90
24686;DHT22;12804;51.176;4.452;2022-12-17T12:26:15;-0.50;99.90
24686;DHT22;12804;51.176;4.452;2022-12-17T12:32:37;-0.30;99.90
24686;DHT22;12804;51.176;4.452;2022-12-17T12:35:23;-0.10;99.90
24686;DHT22;12804;51.176;4.452;2022-12-17T12:38:22;-0.20;99.90
24686;DHT22;12804;51.176;4.452;2022-12-17T12:44:07;0.30;99.90
24686;DHT22;12804;51.176;4.452;2022-12-17T12:47:01;0.20;99.90
24686;DHT22;12804;51.176;4.452;2022-12-17T12:49:57;0.00;99.90
24686;DHT22;12804;51.176;4.452;2022-12-17T12:52:44;0.00;99.90
24686;DHT22;12804;51.176;4.452;2022-12-17T12:55:39;-0.10;99.90
24686;DHT22;12804;51.176;4.452;2022-12-17T12:58:32;0.10;99.90
24686;DHT22;12804;51.176;4.452;2022-12-17T13:01:18;0.10;99.90
24686;DHT22;12804;51.176;4.452;2022-12-17T13:04:20;0.20;99.90
24686;DHT22;12804;51.176;4.452;2022-12-17T13:07:23;0.00;99.90
24686;DHT22;12804;51.176;4.452;2022-12-17T13:09:52;0.30;99.90
24686;DHT22;12804;51.176;4.452;2022-12-17T13:12:34;0.50;99.90
24686;DHT22;12804;51.176;4.452;2022-12-17T13:17:37;0.20;99.90
24686;DHT22;12804;51.176;4.452;2022-12-17T13:20:24;0.20;99.90
24686;DHT22;12804;51.176;4.452;2022-12-17T13:23:02;0.10;99.90
24686;DHT22;12804;51.176;4.452;2022-12-17T13:25:29;0.20;99.90
24686;DHT22;12804;51.176;4.452;2022-12-17T13:27:55;0.10;99.90
24686;DHT22;12804;51.176;4.452;2022-12-17T13:30:33;0.10;99.90
24686;DHT22;12804;51.176;4.452;2022-12-17T13:33:28;-0.20;99.90
24686;DHT22;12804;51.176;4.452;2022-12-17T13:36:29;-0.40;99.90
24686;DHT22;12804;51.176;4.452;2022-12-17T13:41:43;-0.30;99.90
24686;DHT22;12804;51.176;4.452;2022-12-17T13:44:28;-0.20;99.90
24686;DHT22;12804;51.176;4.452;2022-12-17T13:46:56;-0.10;99.90
24686;DHT22;12804;51.176;4.452;2022-12-17T13:49:24;0.10;99.90
24686;DHT22;12804;51.176;4.452;2022-12-17T13:52:25;0.40;99.90
24686;DHT22;12804;51.176;4.452;2022-12-17T13:54:52;0.90;99.90
24686;DHT22;12804;51.176;4.452;2022-12-17T13:57:22;0.90;99.90
24686;DHT22;12804;51.176;4.452;2022-12-17T13:59:52;0.60;99.90
24686;DHT22;12804;51.176;4.452;2022-12-17T14:02:24;0.30;99.90
24686;DHT22;12804;51.176;4.452;2022-12-17T14:04:51;0.40;99.90
24686;DHT22;12804;51.176;4.452;2022-12-17T14:07:18;0.30;99.90
24686;DHT22;12804;51.176;4.452;2022-12-17T14:09:45;0.30;99.90
24686;DHT22;12804;51.176;4.452;2022-12-17T14:12:12;-0.10;99.90
24686;DHT22;12804;51.176;4.452;2022-12-17T14:17:24;0.10;99.90
24686;DHT22;12804;51.176;4.452;2022-12-17T14:22:41;0.50;99.90
24686;DHT22;12804;51.176;4.452;2022-12-17T14:25:21;0.50;99.90
24686;DHT22;12804;51.176;4.452;2022-12-17T14:27:59;0.50;99.90
24686;DHT22;12804;51.176;4.452;2022-12-17T14:30:36;0.70;99.90
24686;DHT22;12804;51.176;4.452;2022-12-17T14:33:03;0.50;99.90
24686;DHT22;12804;51.176;4.452;2022-12-17T14:35:32;0.40;99.90
24686;DHT22;12804;51.176;4.452;2022-12-17T14:37:59;0.40;99.90
24686;DHT22;12804;51.176;4.452;2022-12-17T14:40:26;0.30;99.90
24686;DHT22;12804;51.176;4.452;2022-12-17T14:42:57;0.30;99.90
24686;DHT22;12804;51.176;4.452;2022-12-17T14:45:25;0.40;99.90
24686;DHT22;12804;51.176;4.452;2022-12-17T14:47:59;0.40;99.90
24686;DHT22;12804;51.176;4.452;2022-12-17T14:50:35;0.50;99.90
24686;DHT22;12804;51.176;4.452;2022-12-17T14:53:04;0.40;99.90
24686;DHT22;12804;51.176;4.452;2022-12-17T14:55:58;0.20;99.90
24686;DHT22;12804;51.176;4.452;2022-12-17T14:58:25;0.20;99.90
24686;DHT22;12804;51.176;4.452;2022-12-17T15:00:58;0.30;99.90
24686;DHT22;12804;51.176;4.452;2022-12-17T15:03:27;0.20;99.90
24686;DHT22;12804;51.176;4.452;2022-12-17T15:06:00;0.20;99.90
24686;DHT22;12804;51.176;4.452;2022-12-17T15:08:31;0.30;99.90
24686;DHT22;12804;51.176;4.452;2022-12-17T15:10:57;0.10;99.90
24686;DHT22;12804;51.176;4.452;2022-12-17T15:13:23;0.00;99.90
24686;DHT22;12804;51.176;4.452;2022-12-17T15:15:49;0.00;99.90
24686;DHT22;12804;51.176;4.452;2022-12-17T15:18:15;-0.10;99.90
24686;DHT22;12804;51.176;4.452;2022-12-17T15:20:41;-0.10;99.90
24686;DHT22;12804;51.176;4.452;2022-12-17T15:23:18;-0.20;99.90
24686;DHT22;12804;51.176;4.452;2022-12-17T15:25:46;-0.20;99.90
24686;DHT22;12804;51.176;4.452;2022-12-17T15:28:13;-0.10;99.90
24686;DHT22;12804;51.176;4.452;2022-12-17T15:30:39;-0.20;99.90
24686;DHT22;12804;51.176;4.452;2022-12-17T15:33:06;-0.20;99.90
24686;DHT22;12804;51.176;4.452;2022-12-17T15:35:33;-0.40;99.90
24686;DHT22;12804;51.176;4.452;2022-12-17T15:37:58;-0.30;99.90
24686;DHT22;12804;51.176;4.452;2022-12-17T15:40:24;-0.30;99.90
24686;DHT22;12804;51.176;4.452;2022-12-17T15:42:50;-0.30;99.90
24686;DHT22;12804;51.176;4.452;2022-12-17T15:45:35;-0.20;99.90
24686;DHT22;12804;51.176;4.452;2022-12-17T15:48:01;-0.20;99.90
24686;DHT22;12804;51.176;4.452;2022-12-17T15:50:27;-0.30;99.90
24686;DHT22;12804;51.176;4.452;2022-12-17T15:52:53;-0.30;99.90
24686;DHT22;12804;51.176;4.452;2022-12-17T15:55:18;-0.50;99.90
24686;DHT22;12804;51.176;4.452;2022-12-17T15:57:44;-0.50;99.90
24686;DHT22;12804;51.176;4.452;2022-12-17T16:00:10;-0.30;99.90
24686;DHT22;12804;51.176;4.452;2022-12-17T16:02:37;-0.30;99.90
24686;DHT22;12804;51.176;4.452;2022-12-17T16:05:03;-0.30;99.90
24686;DHT22;12804;51.176;4.452;2022-12-17T16:07:29;-0.30;99.90
24686;DHT22;12804;51.176;4.452;2022-12-17T16:09:55;-0.20;99.90
24686;DHT22;12804;51.176;4.452;2022-12-17T16:12:21;-0.20;99.90
24686;DHT22;12804;51.176;4.452;2022-12-17T16:14:48;-0.10;99.90
24686;DHT22;12804;51.176;4.452;2022-12-17T16:17:13;-0.10;99.90
24686;DHT22;12804;51.176;4.452;2022-12-17T16:19:39;-0.20;99.90
24686;DHT22;12804;51.176;4.452;2022-12-17T16:22:05;-0.20;99.90
24686;DHT22;12804;51.176;4.452;2022-12-17T16:24:31;-0.30;99.90
24686;DHT22;12804;51.176;4.452;2022-12-17T16:26:57;-0.30;99.90
24686;DHT22;12804;51.176;4.452;2022-12-17T16:29:23;-0.40;99.90
24686;DHT22;12804;51.176;4.452;2022-12-17T16:31:49;-0.30;99.90
24686;DHT22;12804;51.176;4.452;2022-12-17T16:34:15;-0.20;99.90
24686;DHT22;12804;51.176;4.452;2022-12-17T16:36:41;-0.40;99.90
24686;DHT22;12804;51.176;4.452;2022-12-17T16:39:07;-0.70;99.90
24686;DHT22;12804;51.176;4.452;2022-12-17T16:41:33;-0.50;99.90
24686;DHT22;12804;51.176;4.452;2022-12-17T16:43:59;-0.80;99.90
24686;DHT22;12804;51.176;4.452;2022-12-17T16:46:35;-0.70;99.90
24686;DHT22;12804;51.176;4.452;2022-12-17T16:49:16;-0.60;99.90
24686;DHT22;12804;51.176;4.452;2022-12-17T16:51:44;-0.70;99.90
24686;DHT22;12804;51.176;4.452;2022-12-17T16:54:12;-0.80;99.90
24686;DHT22;12804;51.176;4.452;2022-12-17T16:56:40;-0.80;99.90
24686;DHT22;12804;51.176;4.452;2022-12-17T16:59:07;-0.70;99.90
24686;DHT22;12804;51.176;4.452;2022-12-17T17:01:34;-0.80;99.90
24686;DHT22;12804;51.176;4.452;2022-12-17T17:04:00;-0.80;99.90
24686;DHT22;12804;51.176;4.452;2022-12-17T17:06:27;-0.80;99.90
24686;DHT22;12804;51.176;4.452;2022-12-17T17:08:53;-0.80;99.90
24686;DHT22;12804;51.176;4.452;2022-12-17T17:11:21;-0.80;99.90
24686;DHT22;12804;51.176;4.452;2022-12-17T17:13:49;-0.90;99.90
24686;DHT22;12804;51.176;4.452;2022-12-17T17:16:16;-0.70;99.90
24686;DHT22;12804;51.176;4.452;2022-12-17T17:18:42;-0.70;99.90
24686;DHT22;12804;51.176;4.452;2022-12-17T17:21:28;-0.80;99.90
24686;DHT22;12804;51.176;4.452;2022-12-17T17:23:59;-0.70;99.90
24686;DHT22;12804;51.176;4.452;2022-12-17T17:26:27;-0.70;99.90
24686;DHT22;12804;51.176;4.452;2022-12-17T17:28:53;-0.70;99.90
24686;DHT22;12804;51.176;4.452;2022-12-17T17:31:20;-0.70;99.90
24686;DHT22;12804;51.176;4.452;2022-12-17T17:33:47;-0.70;99.90
24686;DHT22;12804;51.176;4.452;2022-12-17T17:36:15;-0.70;99.90
24686;DHT22;12804;51.176;4.452;2022-12-17T17:38:41;-1.00;99.90
24686;DHT22;12804;51.176;4.452;2022-12-17T17:41:09;-0.80;99.90
24686;DHT22;12804;51.176;4.452;2022-12-17T17:43:36;-0.80;99.90
24686;DHT22;12804;51.176;4.452;2022-12-17T17:46:13;-0.80;99.90
24686;DHT22;12804;51.176;4.452;2022-12-17T17:48:40;-0.80;99.90
24686;DHT22;12804;51.176;4.452;2022-12-17T17:51:18;-0.60;99.90
24686;DHT22;12804;51.176;4.452;2022-12-17T17:53:45;-0.50;99.90
24686;DHT22;12804;51.176;4.452;2022-12-17T17:56:14;-0.60;99.90
24686;DHT22;12804;51.176;4.452;2022-12-17T17:58:42;-0.60;99.90
24686;DHT22;12804;51.176;4.452;2022-12-17T18:01:10;-0.70;99.90
24686;DHT22;12804;51.176;4.452;2022-12-17T18:03:37;-0.80;99.90